Погода Сологовскоена 2 недели

Тверская область, Россия

19 мая-01 июня
  • 19мая
    Сегодня
    +7°
    +21°
    Ясно и безоблачно
    ВремяПогодаТемператураВлажностьДавлениеВетер, м/сВероятность осадков
    00:00Ясно и безоблачно+8°C61 %753 мм0.3 м/с2 %
    03:00Ясно и безоблачно+5°C76 %754 мм0.7 м/с2 %
    06:00Ясно и безоблачно+8°C77 %754 мм0.7 м/с2 %
    09:00Ясно и безоблачно+15°C58 %754 мм1.4 м/с2 %
    12:00Ясно и безоблачно+19°C45 %753 мм2.0 м/с2 %
    15:00Ясно и безоблачно+20°C43 %752 мм2.1 м/с2 %
    18:00Ясно и безоблачно+20°C44 %751 мм1.7 м/с2 %
    21:00Ясно и безоблачно+13°C62 %751 мм0.6 м/с2 %
  • 20мая
    Понедельник
    +8°
    +23°
    Практически безоблачно
    ВремяПогодаТемператураВлажностьДавлениеВетер, м/сВероятность осадков
    00:00Ясно и безоблачно+10°C65 %751 мм0.9 м/с2 %
    03:00Ясно и безоблачно+8°C73 %750 мм1.2 м/с2 %
    06:00Ясно и безоблачно+10°C76 %750 мм1.2 м/с2 %
    09:00Ясно и безоблачно+17°C62 %750 мм1.7 м/с2 %
    12:00Практически безоблачно+22°C52 %750 мм2.3 м/с2 %
    15:00Практически безоблачно+23°C41 %750 мм2.2 м/с5 %
    18:00Практически безоблачно+22°C45 %749 мм2.0 м/с10 %
    21:00Практически безоблачно+15°C62 %749 мм0.3 м/с6 %
  • 21мая
    Вторник
    +6°
    +22°
    Ясно и безоблачно
    ВремяПогодаТемператураВлажностьДавлениеВетер, м/сВероятность осадков
    00:00Небольшая облачность+12°C76 %750 мм0.4 м/с2 %
    03:00Ясно и безоблачно+9°C90 %750 мм0.6 м/с2 %
    06:00Облачно с прояснениями+12°C92 %751 мм0.7 м/с16 %
    09:00Практически безоблачно+18°C74 %752 мм1.1 м/с15 %
    12:00Практически безоблачно+20°C59 %752 мм1.4 м/с18 %
    15:00Ясно и безоблачно+21°C47 %752 мм2.0 м/с23 %
    18:00Облачно с прояснениями+20°C42 %752 мм1.8 м/с14 %
    21:00Практически безоблачно+13°C46 %753 мм0.5 м/с2 %
  • 22мая
    Среда
    +1°
    +19°
    Ясно и безоблачно
    ВремяПогодаТемператураВлажностьДавлениеВетер, м/сВероятность осадков
    00:00Облачно с прояснениями+9°C62 %753 мм0.3 м/с3 %
    03:00Ясно и безоблачно+7°C61 %753 мм0.9 м/с2 %
    06:00Ясно и безоблачно+8°C72 %754 мм0.9 м/с2 %
    09:00Ясно и безоблачно+15°C54 %755 мм1.5 м/с2 %
    12:00Ясно и безоблачно+18°C42 %756 мм2.1 м/с2 %
    15:00Ясно и безоблачно+18°C38 %756 мм2.1 м/с2 %
    18:00Ясно и безоблачно+14°C37 %756 мм2.6 м/с3 %
    21:00Ясно и безоблачно+9°C41 %757 мм1.0 м/с2 %
  • 23мая
    Четверг
    +1°
    +17°
    Ясно и безоблачно
    ВремяПогодаТемператураВлажностьДавлениеВетер, м/сВероятность осадков
    00:00Ясно и безоблачно+8°C48 %758 мм0.6 м/с2 %
    03:00Ясно и безоблачно+2°C53 %759 мм0.7 м/с2 %
    06:00Ясно и безоблачно+6°C64 %760 мм0.8 м/с2 %
    09:00Ясно и безоблачно+13°C39 %761 мм1.5 м/с2 %
    12:00Ясно и безоблачно+16°C34 %761 мм1.8 м/с2 %
    15:00Ясно и безоблачно+17°C34 %761 мм1.8 м/с2 %
    18:00Ясно и безоблачно+16°C36 %760 мм1.3 м/с3 %
    21:00Ясно и безоблачно+8°C57 %760 мм0.3 м/с2 %
Мы используем cookies
Соглашаюсь